createdAt,value
2023-01-17T00:02:13.126Z,95.80
2023-01-17T00:04:58.791Z,95.96
2023-01-17T00:07:45.699Z,95.86
2023-01-17T00:10:22.562Z,95.90
2023-01-17T00:13:02.980Z,96.00
2023-01-17T00:15:31.272Z,95.97
2023-01-17T00:17:58.567Z,96.02
2023-01-17T00:20:46.334Z,95.96
2023-01-17T00:23:37.387Z,96.04
2023-01-17T00:26:15.094Z,96.25
2023-01-17T00:28:43.601Z,96.78
2023-01-17T00:31:12.620Z,96.91
2023-01-17T00:33:39.640Z,96.91
2023-01-17T00:36:08.220Z,97.08
2023-01-17T00:38:37.413Z,97.03
2023-01-17T00:41:08.015Z,97.22
2023-01-17T00:43:53.817Z,97.35
2023-01-17T00:46:39.851Z,97.45
2023-01-17T00:49:26.330Z,97.75
2023-01-17T00:52:12.233Z,98.13
2023-01-17T00:54:59.088Z,98.50
2023-01-17T00:57:44.859Z,98.70
2023-01-17T01:00:31.100Z,98.79
2023-01-17T01:03:16.661Z,99.18
2023-01-17T01:06:02.266Z,98.97
2023-01-17T01:08:48.234Z,98.92
2023-01-17T01:11:39.467Z,98.93
2023-01-17T01:14:28.719Z,98.86
2023-01-17T01:17:14.381Z,98.75
2023-01-17T01:19:59.832Z,98.72
2023-01-17T01:22:45.491Z,98.85
2023-01-17T01:25:31.127Z,98.92
2023-01-17T01:28:31.888Z,99.12
2023-01-17T01:31:22.390Z,99.04
2023-01-17T01:33:53.330Z,98.73
2023-01-17T01:36:20.947Z,98.68
2023-01-17T01:38:49.693Z,98.79
2023-01-17T01:41:17.425Z,99.01
2023-01-17T01:43:46.234Z,99.06
2023-01-17T01:46:23.387Z,99.21
2023-01-17T01:48:54.004Z,99.29
2023-01-17T01:51:43.843Z,99.41
2023-01-17T01:54:20.026Z,99.71
2023-01-17T01:56:48.638Z,99.73
2023-01-17T01:59:18.773Z,99.79
2023-01-17T02:01:47.843Z,99.85
2023-01-17T02:04:14.960Z,99.61
2023-01-17T02:06:51.611Z,99.53
2023-01-17T02:09:19.630Z,99.41
2023-01-17T02:11:49.604Z,99.15
2023-01-17T02:14:18.830Z,98.96
2023-01-17T02:16:58.119Z,98.70
2023-01-17T02:19:37.058Z,98.53
2023-01-17T02:22:19.443Z,98.50
2023-01-17T02:25:27.700Z,98.65
2023-01-17T02:32:55.860Z,99.22
2023-01-17T02:35:32.114Z,99.43
2023-01-17T02:38:16.142Z,99.81
2023-01-17T02:41:10.862Z,100.00
2023-01-17T02:43:39.171Z,100.00
2023-01-17T02:46:06.911Z,100.00
2023-01-17T02:48:37.186Z,100.00
2023-01-17T02:51:22.703Z,100.00
2023-01-17T02:54:09.753Z,100.00
2023-01-17T02:56:58.111Z,100.00
2023-01-17T02:59:45.926Z,100.00
2023-01-17T03:03:00.518Z,100.00
2023-01-17T03:05:56.958Z,100.00
2023-01-17T03:08:25.355Z,100.00
2023-01-17T03:10:52.760Z,100.00
2023-01-17T03:13:19.742Z,100.00
2023-01-17T03:15:46.816Z,100.00
2023-01-17T03:18:15.971Z,99.99
2023-01-17T03:20:42.891Z,99.92
2023-01-17T03:23:09.893Z,99.66
2023-01-17T03:25:36.906Z,99.42
2023-01-17T03:28:04.192Z,99.22
2023-01-17T03:30:31.126Z,99.08
2023-01-17T03:33:03.669Z,99.00
2023-01-17T03:35:30.666Z,98.62
2023-01-17T03:37:57.612Z,98.44
2023-01-17T03:40:24.797Z,98.51
2023-01-17T03:42:51.677Z,98.23
2023-01-17T03:45:19.503Z,98.15
2023-01-17T03:47:46.487Z,98.02
2023-01-17T03:50:13.522Z,97.98
2023-01-17T03:52:40.435Z,97.90
2023-01-17T03:55:07.727Z,98.00
2023-01-17T03:57:34.620Z,98.09
2023-01-17T04:00:01.641Z,98.26
2023-01-17T04:02:28.676Z,98.60
2023-01-17T04:04:55.822Z,98.85
2023-01-17T04:07:22.749Z,98.95
2023-01-17T04:09:51.729Z,98.90
2023-01-17T04:12:18.611Z,98.94
2023-01-17T04:14:45.529Z,99.24
2023-01-17T04:17:13.923Z,99.35
2023-01-17T04:19:41.105Z,99.36
2023-01-17T04:22:08.121Z,99.79
2023-01-17T04:24:35.340Z,100.00
2023-01-17T04:27:04.640Z,100.00
2023-01-17T04:29:31.984Z,100.00
2023-01-17T04:32:01.080Z,100.00
2023-01-17T04:34:28.008Z,100.00
2023-01-17T04:36:54.978Z,100.00
2023-01-17T04:39:23.049Z,100.00
2023-01-17T04:41:49.960Z,99.83
2023-01-17T04:44:16.839Z,99.33
2023-01-17T04:46:44.365Z,99.30
2023-01-17T04:49:11.255Z,99.45
2023-01-17T04:51:38.182Z,99.84
2023-01-17T04:54:05.257Z,99.77
2023-01-17T04:56:32.189Z,99.56
2023-01-17T04:58:59.074Z,99.43
2023-01-17T05:01:26.737Z,99.47
2023-01-17T05:03:53.728Z,99.49
2023-01-17T05:06:20.684Z,99.55
2023-01-17T05:08:47.666Z,99.71
2023-01-17T05:11:15.061Z,99.94
2023-01-17T05:13:41.922Z,100.00
2023-01-17T05:16:08.908Z,100.00
2023-01-17T05:18:37.168Z,100.00
2023-01-17T05:21:06.763Z,100.00
2023-01-17T05:23:33.706Z,100.00
2023-01-17T05:26:00.704Z,100.00
2023-01-17T05:28:27.590Z,100.00
2023-01-17T05:30:54.642Z,100.00
2023-01-17T05:33:22.036Z,100.00
2023-01-17T05:35:49.005Z,100.00
2023-01-17T05:38:16.647Z,100.00
2023-01-17T05:40:43.547Z,100.00
2023-01-17T05:43:10.613Z,100.00
2023-01-17T05:45:37.661Z,100.00
2023-01-17T05:48:06.218Z,100.00
2023-01-17T05:50:36.716Z,100.00
2023-01-17T05:53:10.379Z,100.00
2023-01-17T05:55:38.855Z,100.00
2023-01-17T05:58:08.579Z,100.00
2023-01-17T06:00:36.738Z,100.00
2023-01-17T06:03:03.830Z,100.00
2023-01-17T06:05:31.078Z,100.00
2023-01-17T06:08:00.498Z,100.00
2023-01-17T06:10:28.902Z,100.00
2023-01-17T06:13:06.735Z,100.00
2023-01-17T06:15:38.189Z,100.00
2023-01-17T06:18:11.056Z,100.00
2023-01-17T06:20:52.118Z,100.00
2023-01-17T06:23:23.833Z,100.00
2023-01-17T06:25:51.402Z,100.00
2023-01-17T06:28:26.028Z,100.00
2023-01-17T06:30:56.718Z,100.00
2023-01-17T06:33:23.731Z,100.00
2023-01-17T06:35:52.636Z,100.00
2023-01-17T06:38:20.503Z,100.00
2023-01-17T06:40:48.525Z,100.00
2023-01-17T06:43:19.722Z,100.00
2023-01-17T06:45:46.961Z,100.00
2023-01-17T06:48:19.192Z,100.00
2023-01-17T06:50:49.451Z,100.00
2023-01-17T06:53:16.958Z,100.00
2023-01-17T06:55:45.126Z,100.00
2023-01-17T06:58:16.116Z,100.00
2023-01-17T07:00:44.142Z,100.00
2023-01-17T07:03:24.528Z,100.00
2023-01-17T07:05:59.610Z,100.00
2023-01-17T07:08:56.130Z,100.00
2023-01-17T07:11:28.017Z,100.00
2023-01-17T07:15:18.587Z,100.00
2023-01-17T07:17:47.018Z,100.00
2023-01-17T07:20:14.071Z,100.00
2023-01-17T07:22:45.227Z,100.00
2023-01-17T07:25:13.908Z,100.00
2023-01-17T07:27:40.903Z,100.00
2023-01-17T07:30:09.459Z,100.00
2023-01-17T07:32:36.711Z,100.00
2023-01-17T07:35:07.668Z,100.00
2023-01-17T07:37:38.763Z,100.00
2023-01-17T07:40:09.243Z,100.00
2023-01-17T07:42:36.254Z,100.00
2023-01-17T07:45:03.830Z,100.00
2023-01-17T07:47:33.543Z,100.00
2023-01-17T07:50:04.499Z,100.00
2023-01-17T07:52:32.761Z,100.00
2023-01-17T07:54:59.898Z,100.00
2023-01-17T07:57:28.592Z,100.00
2023-01-17T07:59:58.758Z,100.00
2023-01-17T08:02:30.635Z,100.00
2023-01-17T08:05:22.762Z,100.00
2023-01-17T08:08:01.559Z,100.00
2023-01-17T08:11:12.231Z,100.00
2023-01-17T08:13:55.622Z,100.00
2023-01-17T08:16:32.681Z,100.00
2023-01-17T08:19:11.073Z,100.00
2023-01-17T08:21:48.539Z,100.00
2023-01-17T08:24:30.133Z,100.00
2023-01-17T08:27:20.483Z,100.00
2023-01-17T08:30:01.564Z,100.00
2023-01-17T08:32:42.075Z,100.00
2023-01-17T08:35:32.913Z,100.00
2023-01-17T08:38:12.464Z,100.00
2023-01-17T08:40:52.733Z,100.00
2023-01-17T08:43:38.255Z,100.00
2023-01-17T08:46:36.389Z,100.00
2023-01-17T08:49:25.228Z,100.00
2023-01-17T08:52:34.082Z,100.00
2023-01-17T08:55:14.954Z,100.00
2023-01-17T09:01:06.230Z,100.00
2023-01-17T09:03:46.191Z,100.00
2023-01-17T09:06:54.612Z,100.00
2023-01-17T09:10:02.548Z,100.00
2023-01-17T09:12:54.675Z,100.00
2023-01-17T09:15:35.640Z,100.00
2023-01-17T09:18:27.206Z,100.00
2023-01-17T09:21:15.430Z,100.00
2023-01-17T09:27:07.370Z,100.00
2023-01-17T09:29:52.423Z,100.00
2023-01-17T09:32:38.774Z,100.00
2023-01-17T09:35:21.848Z,100.00
2023-01-17T09:38:25.200Z,100.00
2023-01-17T09:41:51.135Z,100.00
2023-01-17T09:45:44.570Z,100.00
2023-01-17T09:52:28.137Z,100.00
2023-01-17T09:56:19.624Z,100.00
2023-01-17T09:59:32.631Z,100.00
2023-01-17T10:02:27.333Z,100.00
2023-01-17T10:05:02.274Z,100.00
2023-01-17T10:08:04.706Z,100.00
2023-01-17T10:11:14.198Z,100.00
2023-01-17T10:14:40.054Z,100.00
2023-01-17T10:17:45.247Z,100.00
2023-01-17T10:20:56.386Z,100.00
2023-01-17T10:24:02.342Z,100.00
2023-01-17T10:27:06.981Z,100.00
2023-01-17T10:37:02.514Z,100.00
2023-01-17T10:39:50.645Z,100.00
2023-01-17T10:42:53.465Z,100.00
2023-01-17T10:46:19.070Z,100.00
2023-01-17T10:49:17.760Z,100.00
2023-01-17T10:53:04.312Z,100.00
2023-01-17T10:56:23.725Z,100.00
2023-01-17T11:00:22.765Z,100.00
2023-01-17T11:02:57.069Z,100.00
2023-01-17T11:06:31.503Z,100.00
2023-01-17T11:09:40.145Z,100.00
2023-01-17T11:12:29.709Z,100.00
2023-01-17T11:15:11.894Z,100.00
2023-01-17T11:18:39.547Z,100.00
2023-01-17T11:21:28.976Z,100.00
2023-01-17T11:28:07.852Z,98.52
2023-01-17T11:30:52.825Z,97.93
2023-01-17T11:34:02.685Z,96.77
2023-01-17T11:37:18.071Z,96.10
2023-01-17T11:40:00.573Z,95.22
2023-01-17T11:45:34.652Z,94.40
2023-01-17T11:48:31.825Z,94.08
2023-01-17T11:51:20.216Z,92.38
2023-01-17T11:54:50.709Z,91.57
2023-01-17T11:57:37.381Z,91.36
2023-01-17T12:00:19.178Z,90.69
2023-01-17T12:03:17.880Z,90.02
2023-01-17T12:06:32.926Z,86.88
2023-01-17T12:09:56.278Z,87.77
2023-01-17T12:13:40.809Z,87.72
2023-01-17T12:16:47.395Z,87.67
2023-01-17T12:20:28.825Z,87.00
2023-01-17T12:23:33.167Z,86.13
2023-01-17T12:26:43.418Z,85.22
2023-01-17T12:30:04.069Z,83.70
2023-01-17T12:33:23.494Z,83.94
2023-01-17T12:36:22.244Z,84.19
2023-01-17T12:39:16.892Z,83.42
2023-01-17T12:42:31.692Z,82.24
2023-01-17T12:45:50.331Z,82.40
2023-01-17T12:48:34.303Z,82.53
2023-01-17T12:51:27.480Z,81.60
2023-01-17T12:54:40.633Z,81.36
2023-01-17T12:57:17.165Z,80.85
2023-01-17T13:00:30.340Z,79.75
2023-01-17T13:03:25.379Z,79.89
2023-01-17T13:06:04.745Z,79.49
2023-01-17T13:08:56.246Z,79.65
2023-01-17T13:12:03.434Z,79.07
2023-01-17T13:14:59.110Z,79.46
2023-01-17T13:18:09.258Z,79.03
2023-01-17T13:24:34.842Z,77.73
2023-01-17T13:27:30.921Z,77.21
2023-01-17T13:30:50.596Z,77.26
2023-01-17T13:34:02.053Z,77.06
2023-01-17T13:37:22.430Z,76.59
2023-01-17T13:40:26.047Z,76.70
2023-01-17T13:43:02.225Z,76.94
2023-01-17T13:45:40.161Z,77.32
2023-01-17T13:48:28.877Z,77.76
2023-01-17T13:52:01.014Z,78.32
2023-01-17T13:54:55.458Z,79.80
2023-01-17T13:57:34.392Z,79.78
2023-01-17T14:00:26.988Z,79.61
2023-01-17T14:02:56.078Z,80.02
2023-01-17T14:05:40.562Z,80.42
2023-01-17T14:08:21.229Z,81.05
2023-01-17T14:11:20.687Z,81.03
2023-01-17T14:13:52.415Z,81.75
2023-01-17T14:16:29.366Z,82.63
2023-01-17T14:18:59.707Z,82.96
2023-01-17T14:21:35.246Z,83.07
2023-01-17T14:24:47.791Z,83.20
2023-01-17T14:27:32.498Z,83.77
2023-01-17T14:30:10.525Z,83.86
2023-01-17T14:33:07.939Z,83.95
2023-01-17T14:35:39.139Z,84.15
2023-01-17T14:38:27.885Z,84.25
2023-01-17T14:41:00.153Z,84.63
2023-01-17T14:43:32.419Z,84.96
2023-01-17T14:46:07.452Z,85.33
2023-01-17T14:48:40.277Z,85.61
2023-01-17T14:51:19.787Z,85.95
2023-01-17T14:54:02.292Z,86.36
2023-01-17T14:56:30.722Z,86.68
2023-01-17T14:59:06.541Z,87.04
2023-01-17T15:01:35.752Z,87.30
2023-01-17T15:04:03.396Z,87.66
2023-01-17T15:06:40.202Z,88.02
2023-01-17T15:09:19.869Z,88.30
2023-01-17T15:11:49.877Z,88.60
2023-01-17T15:14:27.915Z,88.82
2023-01-17T15:16:55.442Z,88.98
2023-01-17T15:19:24.532Z,89.16
2023-01-17T15:21:54.075Z,89.34
2023-01-17T15:24:24.967Z,89.47
2023-01-17T15:26:52.028Z,89.59
2023-01-17T15:29:30.255Z,89.80
2023-01-17T15:32:00.111Z,89.77
2023-01-17T15:34:29.411Z,89.57
2023-01-17T15:37:00.946Z,89.81
2023-01-17T15:39:34.618Z,90.08
2023-01-17T15:42:08.291Z,90.30
2023-01-17T15:44:48.183Z,90.43
2023-01-17T15:47:37.979Z,90.68
2023-01-17T15:50:20.910Z,91.04
2023-01-17T15:52:52.612Z,91.52
2023-01-17T15:55:38.357Z,91.73
2023-01-17T15:58:26.904Z,91.92
2023-01-17T16:00:55.224Z,92.31
2023-01-17T16:03:31.147Z,92.58
2023-01-17T16:06:02.367Z,92.74
2023-01-17T16:08:38.500Z,92.74
2023-01-17T16:11:07.888Z,92.86
2023-01-17T16:13:42.793Z,93.02
2023-01-17T16:16:17.204Z,92.81
2023-01-17T16:18:46.247Z,92.98
2023-01-17T16:21:22.741Z,93.47
2023-01-17T16:23:50.541Z,93.93
2023-01-17T16:26:18.144Z,94.14
2023-01-17T16:28:45.230Z,94.62
2023-01-17T16:31:12.346Z,94.85
2023-01-17T16:33:41.830Z,95.35
2023-01-17T16:36:16.229Z,95.42
2023-01-17T16:38:44.815Z,95.66
2023-01-17T16:41:11.798Z,95.96
2023-01-17T16:43:38.819Z,96.17
2023-01-17T16:46:07.168Z,96.20
2023-01-17T16:48:36.864Z,96.17
2023-01-17T16:51:08.026Z,96.21
2023-01-17T16:53:37.018Z,96.61
2023-01-17T16:56:13.993Z,96.73
2023-01-17T16:58:41.129Z,96.50
2023-01-17T17:01:16.930Z,96.47
2023-01-17T17:03:44.195Z,96.28
2023-01-17T17:06:11.479Z,96.41
2023-01-17T17:08:39.438Z,96.45
2023-01-17T17:11:16.773Z,96.72
2023-01-17T17:13:45.710Z,96.86
2023-01-17T17:16:23.549Z,97.18
2023-01-17T17:19:04.803Z,97.17
2023-01-17T17:21:33.985Z,97.37
2023-01-17T17:24:02.021Z,97.28
2023-01-17T17:26:33.579Z,98.07
2023-01-17T17:29:01.558Z,98.39
2023-01-17T17:31:28.546Z,98.69
2023-01-17T17:34:03.089Z,98.73
2023-01-17T17:36:30.413Z,99.09
2023-01-17T17:38:58.938Z,99.55
2023-01-17T17:41:28.680Z,99.76
2023-01-17T17:43:56.811Z,99.95
2023-01-17T17:46:26.564Z,99.89
2023-01-17T17:48:53.513Z,100.00
2023-01-17T17:51:38.246Z,100.00
2023-01-17T17:54:08.110Z,100.00
2023-01-17T17:56:37.242Z,100.00
2023-01-17T17:59:08.367Z,99.90
2023-01-17T18:01:40.457Z,100.00
2023-01-17T18:04:08.479Z,100.00
2023-01-17T18:06:35.780Z,100.00
2023-01-17T18:09:03.694Z,99.80
2023-01-17T18:11:31.318Z,99.50
2023-01-17T18:14:01.407Z,99.46
2023-01-17T18:16:31.965Z,99.37
2023-01-17T18:19:00.235Z,99.56
2023-01-17T18:21:31.826Z,99.46
2023-01-17T18:24:02.133Z,99.28
2023-01-17T18:26:32.315Z,99.31
2023-01-17T18:29:01.142Z,99.47
2023-01-17T18:31:30.053Z,99.42
2023-01-17T18:34:05.248Z,99.32
2023-01-17T18:36:34.249Z,99.38
2023-01-17T18:39:04.073Z,99.52
2023-01-17T18:41:31.609Z,99.84
2023-01-17T18:43:58.588Z,100.00
2023-01-17T18:46:27.208Z,100.00
2023-01-17T18:48:56.645Z,100.00
2023-01-17T18:51:25.246Z,100.00
2023-01-17T18:53:52.498Z,100.00
2023-01-17T18:56:21.655Z,100.00
2023-01-17T18:58:50.053Z,100.00
2023-01-17T19:01:26.205Z,100.00
2023-01-17T19:03:59.259Z,100.00
2023-01-17T19:06:29.640Z,100.00
2023-01-17T19:08:58.681Z,100.00
2023-01-17T19:11:27.962Z,100.00
2023-01-17T19:13:56.145Z,100.00
2023-01-17T19:16:28.784Z,100.00
2023-01-17T19:19:00.985Z,100.00
2023-01-17T19:21:28.617Z,100.00
2023-01-17T19:23:56.861Z,100.00
2023-01-17T19:26:26.846Z,100.00
2023-01-17T19:28:58.203Z,100.00
2023-01-17T19:31:29.118Z,100.00
2023-01-17T19:33:57.933Z,100.00
2023-01-17T19:36:27.747Z,100.00
2023-01-17T19:39:04.365Z,100.00
2023-01-17T19:41:34.252Z,100.00
2023-01-17T19:44:05.796Z,100.00
2023-01-17T19:46:33.895Z,100.00
2023-01-17T19:49:02.985Z,100.00
2023-01-17T19:51:29.980Z,100.00
2023-01-17T19:54:00.575Z,100.00
2023-01-17T19:56:28.340Z,100.00
2023-01-17T19:59:00.040Z,100.00
2023-01-17T20:01:29.929Z,100.00
2023-01-17T20:03:58.625Z,100.00
2023-01-17T20:06:28.354Z,100.00
2023-01-17T20:08:58.638Z,100.00
2023-01-17T20:11:27.476Z,100.00
2023-01-17T20:13:57.004Z,100.00
2023-01-17T20:16:27.170Z,100.00
2023-01-17T20:18:54.268Z,100.00
2023-01-17T20:21:31.870Z,100.00
2023-01-17T20:24:02.655Z,100.00
2023-01-17T20:26:36.141Z,100.00
2023-01-17T20:29:10.918Z,100.00
2023-01-17T20:31:40.306Z,100.00
2023-01-17T20:34:10.946Z,100.00
2023-01-17T20:36:41.168Z,100.00
2023-01-17T20:39:10.677Z,100.00
2023-01-17T20:41:41.683Z,100.00
2023-01-17T20:44:12.358Z,100.00
2023-01-17T20:46:40.914Z,100.00
2023-01-17T20:49:15.764Z,100.00
2023-01-17T20:51:44.622Z,100.00
2023-01-17T20:54:14.654Z,100.00
2023-01-17T20:56:42.023Z,100.00
2023-01-17T20:59:14.890Z,100.00
2023-01-17T21:01:43.266Z,100.00
2023-01-17T21:04:10.874Z,100.00
2023-01-17T21:06:39.898Z,100.00
2023-01-17T21:09:10.304Z,100.00
2023-01-17T21:11:37.835Z,100.00
2023-01-17T21:14:05.965Z,100.00
2023-01-17T21:16:33.615Z,100.00
2023-01-17T21:19:01.360Z,100.00
2023-01-17T21:21:29.030Z,100.00
2023-01-17T21:23:58.554Z,100.00
2023-01-17T21:26:27.744Z,100.00
2023-01-17T21:28:55.736Z,100.00
2023-01-17T21:31:24.616Z,100.00
2023-01-17T21:33:56.940Z,100.00
2023-01-17T21:36:27.867Z,100.00
2023-01-17T21:38:58.171Z,100.00
2023-01-17T21:41:28.303Z,100.00
2023-01-17T21:43:59.412Z,100.00
2023-01-17T21:46:28.093Z,100.00
2023-01-17T21:48:57.778Z,100.00
2023-01-17T21:51:45.685Z,100.00
2023-01-17T21:54:12.759Z,100.00
2023-01-17T21:56:58.402Z,100.00
2023-01-17T21:59:25.227Z,99.87
2023-01-17T22:01:55.241Z,99.81
2023-01-17T22:04:22.191Z,99.74
2023-01-17T22:06:49.279Z,99.76
2023-01-17T22:09:18.340Z,99.67
2023-01-17T22:11:45.372Z,99.67
2023-01-17T22:14:12.371Z,99.76
2023-01-17T22:16:40.058Z,99.96
2023-01-17T22:19:07.699Z,100.00
2023-01-17T22:21:34.783Z,100.00
2023-01-17T22:24:01.795Z,100.00
2023-01-17T22:26:31.222Z,100.00
2023-01-17T22:29:02.006Z,100.00
2023-01-17T22:31:29.780Z,100.00
2023-01-17T22:34:00.280Z,100.00
2023-01-17T22:36:28.873Z,100.00
2023-01-17T22:38:56.273Z,100.00
2023-01-17T22:41:27.414Z,100.00
2023-01-17T22:43:58.348Z,100.00
2023-01-17T22:46:29.032Z,100.00
2023-01-17T22:48:57.056Z,100.00
2023-01-17T22:51:26.227Z,100.00
2023-01-17T22:53:55.899Z,100.00
2023-01-17T22:56:26.192Z,100.00
2023-01-17T22:58:53.532Z,100.00
2023-01-17T23:01:23.583Z,100.00
2023-01-17T23:03:55.807Z,100.00
2023-01-17T23:06:34.942Z,100.00
2023-01-17T23:09:06.168Z,100.00
2023-01-17T23:11:43.128Z,100.00
2023-01-17T23:14:13.159Z,100.00
2023-01-17T23:17:09.073Z,100.00
2023-01-17T23:19:46.761Z,100.00
2023-01-17T23:22:19.436Z,100.00
2023-01-17T23:24:52.739Z,100.00
2023-01-17T23:27:45.766Z,100.00
2023-01-17T23:30:16.042Z,100.00
2023-01-17T23:32:46.196Z,100.00
2023-01-17T23:35:14.189Z,100.00
2023-01-17T23:37:59.759Z,100.00
2023-01-17T23:40:26.828Z,100.00
2023-01-17T23:43:12.166Z,100.00
2023-01-17T23:45:39.252Z,100.00
2023-01-17T23:48:10.700Z,100.00
2023-01-17T23:50:40.112Z,100.00
2023-01-17T23:53:08.056Z,100.00
2023-01-17T23:55:40.255Z,100.00
2023-01-17T23:58:09.548Z,100.00
